Time;durP1;ratioP1;P1;durP2;ratioP2;P2;SDS_P1;SDS_P2;PMS_P1;PMS_P2;Temp;Humidity;BMP_temperature;BMP_pressure;BME280_temperature;BME280_humidity;BME280_pressure;Samples;Min_cycle;Max_cycle;Signal;HPM_P1;HPM_P2
2023/08/03 00:00:07;;;;;;;3.07;0.93;;;;;;;20.18;82.20;99143.81;6261296;28;20051;-70
2023/08/03 00:03:08;;;;;;;1.08;0.98;;;;;;;19.97;84.02;99134.69;6248638;28;20479;-70
2023/08/03 00:06:09;;;;;;;1.47;1.00;;;;;;;20.02;83.97;99128.88;6250785;28;20053;-70
2023/08/03 00:09:12;;;;;;;3.03;1.48;;;;;;;20.08;84.14;99136.13;6250493;28;20052;-70
2023/08/03 00:12:13;;;;;;;3.97;1.13;;;;;;;19.92;85.82;99140.53;6266078;28;20063;-71
2023/08/03 00:15:15;;;;;;;1.60;1.15;;;;;;;19.99;85.26;99130.03;6250414;28;20053;-70
2023/08/03 00:18:16;;;;;;;2.08;1.23;;;;;;;19.93;85.99;99130.75;6249137;28;20092;-70
2023/08/03 00:21:17;;;;;;;1.07;0.90;;;;;;;19.84;87.21;99137.09;6249061;28;20574;-70
2023/08/03 00:24:17;;;;;;;1.50;1.03;;;;;;;19.83;87.12;99125.72;6249070;28;20509;-70
2023/08/03 00:27:18;;;;;;;1.57;1.17;;;;;;;19.78;87.15;99121.94;6250071;28;20057;-70
2023/08/03 00:30:19;;;;;;;3.17;1.40;;;;;;;19.70;87.69;99128.91;6265470;28;20052;-70
2023/08/03 00:33:20;;;;;;;2.00;1.20;;;;;;;19.72;87.79;99126.91;6265594;28;20053;-70
2023/08/03 00:36:20;;;;;;;1.50;1.20;;;;;;;19.69;87.93;99124.59;6248563;28;20136;-70
2023/08/03 00:39:21;;;;;;;1.60;1.08;;;;;;;19.71;87.82;99116.53;6250094;28;20099;-70
2023/08/03 00:42:24;;;;;;;2.43;1.00;;;;;;;19.68;87.77;99112.38;6249934;28;20057;-70
2023/08/03 00:45:25;;;;;;;2.22;1.23;;;;;;;19.63;88.40;99117.34;6248782;28;20062;-70
2023/08/03 00:48:26;;;;;;;2.67;1.47;;;;;;;20.09;85.38;99117.38;6248441;28;20064;-72
2023/08/03 00:51:27;;;;;;;1.48;1.15;;;;;;;20.23;83.55;99120.28;6249838;28;20536;-71
2023/08/03 00:54:33;;;;;;;1.30;1.08;;;;;;;20.24;82.71;99108.66;6249509;28;20045;-70
2023/08/03 00:57:34;;;;;;;1.80;1.30;;;;;;;20.28;82.74;99123.19;6249403;28;20444;-70
2023/08/03 01:00:34;;;;;;;1.37;0.93;;;;;;;20.36;81.65;99123.13;6249612;28;20124;-71
2023/08/03 01:03:35;;;;;;;3.13;1.33;;;;;;;20.35;82.05;99118.84;6249325;28;20050;-70
2023/08/03 01:06:41;;;;;;;2.58;1.33;;;;;;;20.11;82.31;99125.16;6248276;28;20115;-71
2023/08/03 01:09:42;;;;;;;1.10;1.00;;;;;;;20.22;82.69;99123.91;6249036;28;20095;-70
2023/08/03 01:12:44;;;;;;;1.33;1.13;;;;;;;20.28;82.96;99115.25;6264361;28;20387;-70
2023/08/03 01:15:46;;;;;;;2.05;1.10;;;;;;;20.13;82.90;99123.16;6249050;28;20057;-71
2023/08/03 01:18:47;;;;;;;1.63;1.00;;;;;;;20.27;82.07;99126.84;6247974;28;20054;-71
2023/08/03 01:21:49;;;;;;;1.77;1.30;;;;;;;20.20;82.79;99121.47;6247786;28;20049;-70
2023/08/03 01:24:49;;;;;;;1.08;0.98;;;;;;;20.29;81.98;99125.66;6248887;28;20056;-70
2023/08/03 01:27:50;;;;;;;1.23;1.03;;;;;;;20.24;82.30;99127.19;6248710;28;20617;-70
2023/08/03 01:30:51;;;;;;;1.17;1.03;;;;;;;20.17;82.96;99129.75;6247718;28;20045;-70
2023/08/03 01:33:53;;;;;;;0.80;0.68;;;;;;;20.17;82.90;99128.94;6248868;28;20053;-70
2023/08/03 01:36:56;;;;;;;1.65;1.20;;;;;;;20.20;82.64;99132.06;6247083;28;20065;-71
2023/08/03 01:39:59;;;;;;;1.67;1.10;;;;;;;20.02;83.35;99129.69;6247315;28;20468;-70
2023/08/03 01:43:02;;;;;;;0.80;0.80;;;;;;;19.98;83.58;99136.34;6247218;28;20052;-70
2023/08/03 01:46:05;;;;;;;2.20;1.05;;;;;;;20.02;83.32;99136.81;6248554;28;20060;-71
2023/08/03 01:49:05;;;;;;;1.58;1.10;;;;;;;20.09;83.37;99135.09;6248012;28;20561;-70
2023/08/03 01:52:08;;;;;;;4.23;1.10;;;;;;;20.10;83.00;99134.13;6247009;28;20053;-70
2023/08/03 01:55:09;;;;;;;1.33;1.15;;;;;;;20.04;82.84;99134.81;6248142;28;20053;-70
2023/08/03 01:58:11;;;;;;;2.23;1.10;;;;;;;20.00;82.90;99129.06;6246972;28;20072;-70
2023/08/03 02:01:12;;;;;;;4.75;1.27;;;;;;;19.96;83.51;99130.41;6246786;28;20107;-71
2023/08/03 02:04:16;;;;;;;1.57;1.10;;;;;;;20.05;83.27;99125.88;6246801;28;20136;-71
2023/08/03 02:07:37;;;;;;;1.88;1.20;;;;;;;19.96;83.68;99122.47;6263287;28;20056;-70
2023/08/03 02:10:38;;;;;;;1.00;0.90;;;;;;;20.01;83.35;99125.38;6247640;28;20056;-70
2023/08/03 02:13:39;;;;;;;1.53;1.17;;;;;;;19.99;83.27;99131.88;6246635;28;20049;-70
2023/08/03 02:16:39;;;;;;;1.20;1.10;;;;;;;19.93;83.75;99136.88;6246783;28;20049;-70
2023/08/03 02:19:40;;;;;;;2.27;1.40;;;;;;;19.98;83.53;99143.47;6246379;28;20183;-71
2023/08/03 02:22:41;;;;;;;1.52;1.20;;;;;;;19.92;83.22;99143.16;6247504;28;20054;-70
2023/08/03 02:25:42;;;;;;;1.50;1.30;;;;;;;19.89;83.89;99140.88;6247186;28;20089;-70
2023/08/03 02:28:42;;;;;;;1.80;1.00;;;;;;;19.86;84.10;99148.34;6247862;28;20060;-70
2023/08/03 02:31:43;;;;;;;4.77;1.67;;;;;;;19.88;83.73;99143.69;6247263;28;20049;-70
2023/08/03 02:34:44;;;;;;;2.17;1.37;;;;;;;19.86;83.89;99135.94;6247448;28;20068;-71
2023/08/03 02:37:45;;;;;;;1.77;1.30;;;;;;;19.87;84.08;99147.34;6262503;28;20149;-71
2023/08/03 02:40:45;;;;;;;2.70;1.20;;;;;;;19.77;84.57;99136.16;6247129;28;20057;-71
2023/08/03 02:43:46;;;;;;;2.23;1.27;;;;;;;19.69;83.43;99143.13;6246178;28;20136;-70
2023/08/03 02:46:48;;;;;;;1.55;1.20;;;;;;;19.68;85.00;99145.94;6247022;28;20046;-70
2023/08/03 02:49:50;;;;;;;2.22;1.35;;;;;;;19.64;85.89;99145.47;6262153;28;20084;-71
2023/08/03 02:52:53;;;;;;;3.28;1.52;;;;;;;19.67;85.95;99141.66;6247041;28;20053;-71
2023/08/03 02:55:53;;;;;;;2.20;1.30;;;;;;;19.63;85.75;99141.16;6245563;28;20111;-70
2023/08/03 02:58:57;;;;;;;1.93;1.10;;;;;;;19.66;85.88;99142.63;6246904;28;20518;-70
2023/08/03 03:01:58;;;;;;;1.85;1.27;;;;;;;19.71;85.46;99135.88;6246727;28;20055;-70
2023/08/03 03:04:59;;;;;;;1.80;1.00;;;;;;;19.71;85.64;99137.69;6246842;28;20133;-70
2023/08/03 03:08:00;;;;;;;2.05;1.23;;;;;;;19.71;85.64;99148.28;6246718;28;20059;-73
2023/08/03 03:11:01;;;;;;;2.35;1.48;;;;;;;19.73;85.94;99144.44;6245769;28;20512;-73
2023/08/03 03:14:02;;;;;;;1.75;1.23;;;;;;;19.76;85.87;99145.09;6262256;28;20049;-73
2023/08/03 03:17:03;;;;;;;2.40;1.45;;;;;;;19.77;86.40;99147.59;6246701;28;20053;-73
2023/08/03 03:20:05;;;;;;;1.65;1.27;;;;;;;19.75;87.54;99140.78;6245474;28;20049;-73
2023/08/03 03:23:06;;;;;;;;;;;;;;;19.70;87.88;99143.94;6245769;28;20132;-70
2023/08/03 03:26:09;;;;;;;1.70;1.20;;;;;;;19.60;88.15;99146.81;6261828;28;19924;-70
2023/08/03 03:29:12;;;;;;;1.98;1.30;;;;;;;19.55;88.61;99153.63;6246135;28;20057;-70
2023/08/03 03:32:13;;;;;;;1.80;1.27;;;;;;;19.52;90.04;99157.44;6245311;28;20077;-70
2023/08/03 03:35:14;;;;;;;2.83;1.63;;;;;;;19.48;90.41;99153.50;6246242;28;20079;-70
2023/08/03 03:38:14;;;;;;;2.15;1.42;;;;;;;19.52;90.20;99144.22;6248332;28;20072;-70
2023/08/03 03:41:15;;;;;;;1.30;1.20;;;;;;;19.48;89.64;99148.22;6251090;28;20143;-70
2023/08/03 03:44:16;;;;;;;3.70;1.27;;;;;;;19.45;89.93;99148.53;6251467;28;20390;-70
2023/08/03 03:47:16;;;;;;;4.45;1.48;;;;;;;19.47;89.90;99157.13;6251266;28;20053;-73
2023/08/03 03:50:17;;;;;;;1.92;1.10;;;;;;;19.48;89.44;99153.50;6249952;28;20072;-73
2023/08/03 03:53:18;;;;;;;1.50;1.30;;;;;;;19.43;89.97;99158.47;6251634;28;20053;-73
2023/08/03 03:56:19;;;;;;;2.60;1.20;;;;;;;19.44;90.21;99162.78;6251185;28;20049;-73
2023/08/03 03:59:19;;;;;;;2.90;1.60;;;;;;;19.48;90.29;99162.25;6251281;28;20128;-73
2023/08/03 04:02:25;;;;;;;4.75;1.40;;;;;;;19.48;90.00;99172.84;6249905;28;20183;-73
2023/08/03 04:05:26;;;;;;;2.35;1.50;;;;;;;19.45;90.21;99170.53;6251146;28;20076;-73
2023/08/03 04:08:26;;;;;;;2.67;1.80;;;;;;;19.50;90.41;99167.38;6250877;28;20057;-73
2023/08/03 04:11:27;;;;;;;1.77;1.40;;;;;;;19.56;90.44;99166.69;6266386;28;20132;-73
2023/08/03 04:14:28;;;;;;;3.43;1.20;;;;;;;19.58;90.04;99169.13;6249604;28;20131;-73
2023/08/03 04:17:28;;;;;;;3.23;1.50;;;;;;;19.57;90.30;99175.44;6250716;28;20045;-73
2023/08/03 04:20:29;;;;;;;3.30;1.70;;;;;;;19.65;89.96;99178.88;6249481;28;20056;-73
2023/08/03 04:23:32;;;;;;;2.77;1.57;;;;;;;19.57;90.80;99173.63;6249365;28;20399;-73
2023/08/03 04:26:35;;;;;;;2.45;1.40;;;;;;;19.75;90.36;99180.50;6249385;28;20136;-73
2023/08/03 04:29:36;;;;;;;1.95;1.20;;;;;;;19.77;89.49;99184.63;6265574;28;20049;-73
2023/08/03 04:32:37;;;;;;;2.00;1.10;;;;;;;19.62;91.02;99179.22;6249445;28;20195;-73
2023/08/03 04:35:39;;;;;;;2.13;1.50;;;;;;;19.53;91.40;99170.47;6250140;28;20104;-73
2023/08/03 04:38:40;;;;;;;;;;;;;;;19.60;90.72;99168.00;6266220;28;20080;-73
2023/08/03 04:41:41;;;;;;;1.88;1.13;;;;;;;19.73;91.13;99168.28;6250166;28;19921;-73
2023/08/03 04:44:41;;;;;;;2.10;1.30;;;;;;;19.85;90.47;99166.06;6250102;28;20063;-70
2023/08/03 04:47:42;;;;;;;2.38;1.20;;;;;;;19.79;90.44;99165.91;6264831;28;20057;-73
2023/08/03 04:50:43;;;;;;;1.15;1.05;;;;;;;19.81;90.04;99169.22;6249820;28;20041;-73
2023/08/03 04:53:44;;;;;;;1.80;1.10;;;;;;;20.04;89.51;99167.41;6248826;28;20053;-73
2023/08/03 04:56:45;;;;;;;3.75;1.08;;;;;;;20.19;88.76;99170.13;6249635;28;20049;-72
2023/08/03 04:59:46;;;;;;;1.87;1.00;;;;;;;20.27;87.19;99170.06;6265194;28;20121;-70
2023/08/03 05:02:46;;;;;;;3.57;1.20;;;;;;;20.46;86.44;99171.38;6248286;28;20132;-73
2023/08/03 05:05:49;;;;;;;1.20;0.95;;;;;;;20.49;84.73;99167.56;6248376;28;20053;-70
2023/08/03 05:08:50;;;;;;;2.50;1.38;;;;;;;20.66;84.58;99170.94;6248204;28;20069;-73
2023/08/03 05:11:51;;;;;;;1.52;0.95;;;;;;;20.71;83.88;99172.03;6249666;28;20049;-73
2023/08/03 05:14:52;;;;;;;3.80;1.23;;;;;;;20.85;83.46;99166.91;6249361;28;20060;-73
2023/08/03 05:17:55;;;;;;;2.83;1.30;;;;;;;20.93;83.62;99167.66;6249319;28;20394;-73
2023/08/03 05:20:56;;;;;;;1.23;1.00;;;;;;;21.01;82.12;99180.00;6247925;28;20451;-70
2023/08/03 05:23:56;;;;;;;1.53;1.00;;;;;;;21.13;82.08;99183.03;6248855;28;20049;-71
2023/08/03 05:26:59;;;;;;;3.43;1.57;;;;;;;21.31;80.73;99185.28;6249137;28;20049;-71
2023/08/03 05:30:00;;;;;;;1.98;1.17;;;;;;;21.54;81.68;99187.88;6248595;28;20050;-71
2023/08/03 05:33:04;;;;;;;2.47;1.10;;;;;;;21.60;77.79;99189.81;6249209;28;20056;-73
2023/08/03 05:36:05;;;;;;;1.45;1.00;;;;;;;21.77;77.00;99181.63;6248678;28;20498;-73
2023/08/03 05:39:07;;;;;;;4.87;1.23;;;;;;;21.95;74.41;99190.00;6247797;28;20053;-73
2023/08/03 05:42:14;;;;;;;7.00;1.42;;;;;;;22.11;74.34;99187.09;6247439;28;20053;-73
2023/08/03 05:45:34;;;;;;;10.38;1.35;;;;;;;22.43;74.98;99192.09;6247612;28;20398;-73
2023/08/03 05:48:35;;;;;;;7.55;1.20;;;;;;;22.70;73.01;99193.13;6248490;28;20652;-73
2023/08/03 05:51:39;;;;;;;5.33;1.13;;;;;;;22.89;70.94;99191.63;6263995;28;20088;-73
2023/08/03 05:54:40;;;;;;;2.78;1.15;;;;;;;22.79;69.31;99196.47;6248438;28;20426;-73
2023/08/03 05:57:40;;;;;;;8.43;1.50;;;;;;;23.20;68.67;99185.91;6248559;28;20045;-73
2023/08/03 06:00:42;;;;;;;2.40;1.10;;;;;;;23.65;67.95;99188.97;6246489;28;20140;-73
2023/08/03 06:03:46;;;;;;;3.40;1.20;;;;;;;23.78;67.77;99187.41;6246932;28;20049;-74
2023/08/03 06:06:46;;;;;;;1.92;1.00;;;;;;;23.62;63.73;99181.41;6248291;28;20053;-74
2023/08/03 06:09:49;;;;;;;1.37;1.03;;;;;;;23.82;65.80;99183.31;6248038;28;20048;-73
2023/08/03 06:12:50;;;;;;;1.33;1.00;;;;;;;24.06;63.79;99188.09;6248306;28;20053;-73
2023/08/03 06:15:51;;;;;;;7.47;1.40;;;;;;;24.16;64.71;99186.91;6279918;28;20087;-73
2023/08/03 06:18:54;;;;;;;1.47;1.23;;;;;;;24.09;62.58;99185.03;6246854;28;20173;-73
2023/08/03 06:21:55;;;;;;;1.10;0.80;;;;;;;24.24;63.30;99184.03;6247719;28;20089;-73
2023/08/03 06:24:58;;;;;;;1.10;0.93;;;;;;;24.31;63.92;99190.19;6247700;28;20416;-73
2023/08/03 06:28:02;;;;;;;3.13;1.42;;;;;;;24.78;63.05;99187.56;6246678;28;20501;-73
2023/08/03 06:31:21;;;;;;;1.25;0.95;;;;;;;25.02;65.43;99194.06;6247636;28;20053;-74
2023/08/03 06:34:22;;;;;;;2.60;0.80;;;;;;;24.82;61.72;99196.78;6246396;28;20091;-73
2023/08/03 06:37:23;;;;;;;1.17;0.90;;;;;;;25.09;62.00;99192.22;6247705;28;20099;-73
2023/08/03 06:40:26;;;;;;;1.23;1.13;;;;;;;25.22;60.64;99189.53;6247436;28;20050;-73
2023/08/03 06:43:27;;;;;;;1.67;1.38;;;;;;;24.96;60.82;99186.88;6247542;28;20176;-73
2023/08/03 06:46:29;;;;;;;4.43;1.35;;;;;;;25.20;61.54;99186.22;6246252;28;20069;-73
2023/08/03 06:49:30;;;;;;;5.10;1.30;;;;;;;25.41;62.46;99187.00;6246955;28;20111;-73
2023/08/03 06:52:31;;;;;;;2.80;1.20;;;;;;;25.66;60.32;99187.13;6246110;28;20057;-73
2023/08/03 06:55:36;;;;;;;2.80;1.40;;;;;;;25.62;60.00;99183.25;6262533;28;20050;-73
2023/08/03 06:58:37;;;;;;;6.45;1.80;;;;;;;25.48;59.90;99185.97;6246969;28;20091;-73
2023/08/03 07:01:38;;;;;;;2.90;1.70;;;;;;;25.44;61.33;99179.41;6245615;28;20509;-73
2023/08/03 07:04:38;;;;;;;3.60;1.70;;;;;;;25.65;61.83;99188.16;6262231;28;20493;-73
2023/08/03 07:07:39;;;;;;;6.77;1.87;;;;;;;25.71;59.39;99176.63;6246844;28;20056;-73
2023/08/03 07:10:40;;;;;;;1.83;1.40;;;;;;;26.03;58.89;99182.03;6262114;28;20045;-73
2023/08/03 07:13:42;;;;;;;2.23;1.67;;;;;;;26.10;60.08;99188.13;6245665;28;20054;-73
2023/08/03 07:16:43;;;;;;;3.17;1.42;;;;;;;26.10;59.94;99183.59;6246700;28;20144;-73
2023/08/03 07:19:51;;;;;;;2.13;1.40;;;;;;;26.35;58.80;99172.13;6246887;28;20056;-73
2023/08/03 07:22:52;;;;;;;3.08;1.50;;;;;;;26.60;59.84;99165.97;6262101;28;20053;-73
2023/08/03 07:25:53;;;;;;;2.47;1.90;;;;;;;26.73;58.03;99166.69;6245595;28;20128;-73
2023/08/03 07:28:53;;;;;;;1.80;1.70;;;;;;;26.77;57.63;99159.03;6246372;28;20145;-73
2023/08/03 07:31:54;;;;;;;2.00;1.70;;;;;;;26.80;58.06;99157.78;6245304;28;20490;-73
2023/08/03 07:34:55;;;;;;;3.35;1.98;;;;;;;27.09;58.01;99172.28;6278280;28;20053;-74
2023/08/03 07:37:58;;;;;;;2.90;1.57;;;;;;;27.26;56.61;99165.34;6246634;28;20485;-73
2023/08/03 07:40:59;;;;;;;6.00;2.13;;;;;;;27.72;57.05;99171.16;6246391;28;20720;-74
2023/08/03 07:44:00;;;;;;;2.87;1.60;;;;;;;28.15;55.73;99164.78;6246541;28;20050;-71
2023/08/03 07:47:00;;;;;;;4.70;1.83;;;;;;;27.63;55.04;99167.13;6246532;28;20054;-73
2023/08/03 07:50:03;;;;;;;7.63;1.90;;;;;;;27.42;56.20;99176.47;6245052;28;20042;-71
2023/08/03 07:53:04;;;;;;;3.58;1.70;;;;;;;27.48;57.63;99171.03;6246118;28;20405;-70
2023/08/03 07:56:22;;;;;;;1.75;1.60;;;;;;;27.83;56.75;99169.56;6246075;28;20049;-71
2023/08/03 07:59:23;;;;;;;3.75;1.58;;;;;;;27.89;58.91;99168.66;6245993;28;20046;-71
2023/08/03 08:02:25;;;;;;;1.67;1.58;;;;;;;27.83;57.07;99162.31;6244855;28;20099;-71
2023/08/03 08:05:25;;;;;;;;;;;;;;;27.67;57.06;99158.41;6261966;28;20049;-74
2023/08/03 08:08:26;;;;;;;3.03;1.80;;;;;;;28.38;56.62;99168.56;6261494;28;19932;-73
2023/08/03 08:11:28;;;;;;;3.75;2.10;;;;;;;28.22;55.87;99164.69;6244911;28;20489;-71
2023/08/03 08:14:29;;;;;;;2.05;1.85;;;;;;;27.96;55.46;99163.22;6245831;28;20053;-71
2023/08/03 08:17:30;;;;;;;2.75;2.17;;;;;;;28.12;56.11;99166.03;6246306;28;20045;-73
2023/08/03 08:20:33;;;;;;;2.30;2.00;;;;;;;28.34;56.62;99176.25;6261360;28;20060;-71
2023/08/03 08:23:34;;;;;;;2.05;1.80;;;;;;;28.22;56.58;99170.03;6247654;28;20328;-71
2023/08/03 08:26:35;;;;;;;3.15;2.28;;;;;;;28.79;55.17;99169.53;6249345;28;20085;-73
2023/08/03 08:29:37;;;;;;;4.28;2.20;;;;;;;29.20;57.53;99170.44;6265662;28;20076;-74
2023/08/03 08:32:38;;;;;;;4.95;2.05;;;;;;;29.31;53.05;99162.34;6250698;28;20053;-73
2023/08/03 08:35:39;;;;;;;3.60;2.00;;;;;;;29.49;53.34;99165.94;6248956;28;20063;-74
2023/08/03 08:38:40;;;;;;;2.92;1.95;;;;;;;29.52;53.04;99162.75;6282391;28;20052;-73
2023/08/03 08:41:40;;;;;;;3.17;2.30;;;;;;;29.54;51.69;99163.34;6248984;28;20042;-74
2023/08/03 08:44:41;;;;;;;4.82;2.42;;;;;;;30.08;51.90;99154.91;6250330;28;20061;-74
2023/08/03 08:47:45;;;;;;;3.88;2.40;;;;;;;30.53;52.26;99168.31;6248807;28;20058;-74
2023/08/03 08:50:49;;;;;;;4.03;2.22;;;;;;;30.56;49.17;99158.97;6249773;28;20567;-74
2023/08/03 08:53:55;;;;;;;3.33;2.30;;;;;;;30.61;52.75;99156.31;6248702;28;20052;-74
2023/08/03 08:56:55;;;;;;;7.57;2.17;;;;;;;29.98;51.29;99146.69;6265494;28;20053;-73
2023/08/03 09:00:01;;;;;;;2.58;2.17;;;;;;;29.92;51.39;99157.34;6249907;28;20102;-74
2023/08/03 09:03:02;;;;;;;4.43;2.40;;;;;;;29.69;52.63;99162.78;6249920;28;20053;-73
2023/08/03 09:06:03;;;;;;;;;;;;;;;29.75;54.42;99171.81;6282363;28;20053;-74
2023/08/03 09:09:05;;;;;;;5.77;2.13;;;;;;;29.88;53.52;99174.22;6265060;28;19921;-74
2023/08/03 09:12:06;;;;;;;3.97;2.20;;;;;;;30.13;51.86;99179.22;6264948;28;20513;-73
2023/08/03 09:15:07;;;;;;;4.60;2.50;;;;;;;29.54;53.57;99169.50;6249416;28;20056;-74
2023/08/03 09:18:08;;;;;;;4.88;2.42;;;;;;;29.90;53.32;99170.22;6249394;28;20157;-74
2023/08/03 09:21:14;;;;;;;5.45;2.30;;;;;;;30.21;52.01;99172.59;6248146;28;20057;-74
2023/08/03 09:24:20;;;;;;;2.45;2.25;;;;;;;30.69;49.65;99174.75;6248138;28;20099;-74
2023/08/03 09:27:23;;;;;;;6.82;2.47;;;;;;;30.89;50.44;99192.31;6264581;28;20060;-73
2023/08/03 09:30:25;;;;;;;8.25;2.58;;;;;;;30.31;50.91;99181.72;6249149;28;20080;-73
2023/08/03 09:33:25;;;;;;;2.67;2.20;;;;;;;30.81;48.84;99187.31;6248766;28;20060;-74
2023/08/03 09:36:27;;;;;;;2.45;2.20;;;;;;;30.52;51.34;99190.94;6248876;28;20136;-74
2023/08/03 09:39:32;;;;;;;5.13;2.45;;;;;;;30.99;49.93;99173.59;6249044;28;20054;-74
2023/08/03 09:42:33;;;;;;;3.63;2.30;;;;;;;31.49;49.85;99174.50;6248882;28;20073;-74
2023/08/03 09:45:36;;;;;;;3.05;2.17;;;;;;;31.75;49.11;99178.28;6247720;28;20061;-74
2023/08/03 09:48:37;;;;;;;3.50;2.40;;;;;;;31.76;48.46;99165.63;6248611;28;20045;-73
2023/08/03 09:51:43;;;;;;;3.22;2.05;;;;;;;31.20;49.34;99180.06;6263872;28;20049;-74
2023/08/03 09:54:58;;;;;;;3.47;2.47;;;;;;;31.41;49.10;99175.72;6247292;28;20489;-74
2023/08/03 09:58:03;;;;;;;5.25;2.47;;;;;;;31.76;47.49;99165.63;6248603;28;20060;-74
2023/08/03 10:01:08;;;;;;;5.30;2.38;;;;;;;32.19;49.04;99169.31;6248352;28;20080;-74
2023/08/03 10:04:14;;;;;;;2.42;2.20;;;;;;;31.99;47.30;99173.44;6248479;28;20057;-74
2023/08/03 10:07:17;;;;;;;3.80;2.60;;;;;;;32.33;46.01;99165.91;6247061;28;20409;-74
2023/08/03 10:10:22;;;;;;;4.78;2.33;;;;;;;32.50;46.16;99167.63;6248111;28;20076;-74
2023/08/03 10:13:24;;;;;;;4.30;2.70;;;;;;;32.64;47.46;99157.25;6263346;28;20144;-74
2023/08/03 10:16:25;;;;;;;2.50;2.20;;;;;;;31.70;47.64;99152.09;6246994;28;20053;-73
2023/08/03 10:19:28;;;;;;;4.00;2.67;;;;;;;32.36;46.58;99150.25;6248000;28;20108;-73
2023/08/03 10:22:29;;;;;;;7.45;2.70;;;;;;;32.84;47.96;99151.94;6263674;28;20061;-74
2023/08/03 10:25:29;;;;;;;2.85;2.30;;;;;;;33.18;45.99;99159.72;6263202;28;20081;-74
2023/08/03 10:28:57;;;;;;;6.20;2.40;;;;;;;33.48;45.60;99159.00;6246468;28;20049;-74
2023/08/03 10:31:57;;;;;;;3.53;2.25;;;;;;;33.32;44.92;99152.72;6246902;28;20136;-71
2023/08/03 10:35:36;;;;;;;2.90;2.10;;;;;;;33.43;45.84;99150.88;6247245;28;20077;-71
2023/08/03 10:38:41;;;;;;;2.97;2.40;;;;;;;33.35;44.91;99153.28;6262683;28;20100;-71
2023/08/03 10:41:51;;;;;;;2.47;1.90;;;;;;;33.34;46.18;99144.38;6247412;28;20128;-70
2023/08/03 10:44:52;;;;;;;7.85;2.40;;;;;;;33.57;44.44;99148.47;6245790;28;20050;-71
2023/08/03 10:48:30;;;;;;;3.33;1.95;;;;;;;33.11;44.31;99140.19;6246579;28;20049;-71
2023/08/03 10:51:31;;;;;;;3.08;2.08;;;;;;;32.37;45.61;99136.50;6246908;28;20521;-71
2023/08/03 10:54:32;;;;;;;;;;;;;;;32.79;45.06;99134.91;6262633;28;20184;-70
2023/08/03 10:57:33;;;;;;;6.87;2.07;;;;;;;32.95;45.33;99133.06;6245682;28;19928;-71
2023/08/03 11:00:33;;;;;;;3.97;2.40;;;;;;;32.76;45.44;99133.56;6247023;28;20064;-74
2023/08/03 11:03:36;;;;;;;3.92;1.95;;;;;;;32.44;45.99;99138.97;6245764;28;20064;-74
2023/08/03 11:06:37;;;;;;;4.82;2.20;;;;;;;32.83;45.38;99128.72;6246026;28;20045;-74
2023/08/03 11:09:38;;;;;;;2.72;1.60;;;;;;;33.91;45.52;99139.91;6246985;28;20053;-74
2023/08/03 11:12:41;;;;;;;6.07;1.98;;;;;;;33.93;42.07;99135.03;6245962;28;20312;-74
2023/08/03 11:15:41;;;;;;;4.00;2.30;;;;;;;33.87;44.48;99133.41;6246774;28;20489;-74
2023/08/03 11:18:45;;;;;;;;;;;;;;;33.07;45.27;99133.66;6246416;28;20060;-74
2023/08/03 11:21:46;;;;;;;7.95;1.98;;;;;;;32.92;44.66;99124.41;6245607;28;19932;-74
2023/08/03 11:24:47;;;;;;;;;;;;;;;32.98;44.25;99127.97;6245838;28;20053;-74
2023/08/03 11:27:49;;;;;;;2.95;1.73;;;;;;;32.48;44.79;99122.00;6262200;28;19956;-74
2023/08/03 11:30:50;;;;;;;3.10;1.77;;;;;;;33.18;43.04;99121.06;6245474;28;20046;-74
2023/08/03 11:33:54;;;;;;;;;;;;;;;33.84;43.91;99128.53;6247302;28;20132;-74
2023/08/03 11:36:55;;;;;;;2.88;2.20;;;;;;;34.04;41.63;99138.56;6245143;28;20486;-74
2023/08/03 11:40:00;;;;;;;;;;;;;;;33.92;42.70;99136.94;6247328;28;20099;-74
2023/08/03 11:43:01;;;;;;;6.13;1.95;;;;;;;33.64;41.82;99130.13;6246573;28;19925;-74
2023/08/03 11:46:02;;;;;;;3.35;2.33;;;;;;;33.29;44.01;99128.13;6246861;28;20054;-74
2023/08/03 11:49:03;;;;;;;;;;;;;;;33.09;44.11;99126.97;6247279;28;20053;-74
2023/08/03 11:52:06;;;;;;;3.37;2.17;;;;;;;32.71;43.86;99126.22;6261693;28;19921;-70
2023/08/03 11:55:08;;;;;;;3.17;2.40;;;;;;;32.55;45.36;99137.19;6245985;28;20281;-70
2023/08/03 11:58:11;;;;;;;3.88;2.10;;;;;;;32.29;46.10;99124.31;6247518;28;20073;-71
2023/08/03 12:01:12;;;;;;;4.32;2.13;;;;;;;32.50;45.38;99125.25;6251028;28;20053;-73
2023/08/03 12:04:14;;;;;;;4.80;2.20;;;;;;;32.04;46.19;99116.84;6250866;28;20056;-70
2023/08/03 12:07:20;;;;;;;5.15;2.20;;;;;;;32.43;46.93;99115.75;6266819;28;20054;-74
2023/08/03 12:10:21;;;;;;;5.38;2.30;;;;;;;33.41;44.43;99112.47;6266272;28;20049;-71
2023/08/03 12:13:21;;;;;;;;;;;;;;;32.93;43.88;99109.03;6251171;28;20054;-74
2023/08/03 12:16:22;;;;;;;4.27;2.10;;;;;;;32.72;43.99;99110.84;6266223;28;20456;-73
2023/08/03 12:19:22;;;;;;;6.43;2.13;;;;;;;32.53;45.44;99105.84;6266401;28;20480;-74
2023/08/03 12:22:23;;;;;;;4.97;2.13;;;;;;;32.78;44.68;99101.69;6250576;28;20491;-73
2023/08/03 12:25:24;;;;;;;4.80;2.55;;;;;;;33.22;44.95;99104.03;6249992;28;20061;-74
2023/08/03 12:28:25;;;;;;;4.70;2.45;;;;;;;33.09;45.07;99108.06;6249738;28;20100;-71
2023/08/03 12:31:25;;;;;;;5.30;2.47;;;;;;;32.84;44.89;99100.63;6282105;28;20129;-71
2023/08/03 12:34:26;;;;;;;;;;;;;;;32.99;44.33;99093.66;6249315;28;20386;-71
2023/08/03 12:37:27;;;;;;;5.83;1.93;;;;;;;33.08;44.76;99098.31;6250089;28;20024;-70
2023/08/03 12:40:28;;;;;;;10.90;2.35;;;;;;;33.30;44.41;99097.31;6265599;28;20071;-70
2023/08/03 12:43:31;;;;;;;;;;;;;;;33.33;43.48;99102.19;6249173;28;20057;-71
2023/08/03 12:46:32;;;;;;;3.05;2.10;;;;;;;33.08;43.58;99111.81;6248769;28;19921;-70
2023/08/03 12:49:36;;;;;;;4.28;2.30;;;;;;;32.70;43.99;99107.59;6248484;28;20516;-70
2023/08/03 12:52:39;;;;;;;8.63;2.33;;;;;;;32.96;44.50;99110.41;6249962;28;20486;-70
2023/08/03 12:55:40;;;;;;;4.60;2.42;;;;;;;33.09;44.17;99110.78;6249739;28;20064;-70
2023/08/03 12:58:41;;;;;;;4.20;2.28;;;;;;;32.90;44.53;99110.38;6248651;28;20045;-70
2023/08/03 13:01:42;;;;;;;5.63;2.58;;;;;;;32.90;44.17;99120.38;6248514;28;20050;-71
2023/08/03 13:04:42;;;;;;;3.65;2.08;;;;;;;32.66;44.50;99117.28;6248145;28;20118;-70
2023/08/03 13:07:43;;;;;;;;;;;;;;;32.70;44.33;99113.00;6248645;28;20453;-71
2023/08/03 13:10:45;;;;;;;10.33;2.00;;;;;;;32.50;45.43;99121.75;6249035;28;20557;-70
2023/08/03 13:13:46;;;;;;;4.28;2.38;;;;;;;32.47;45.43;99120.38;6249218;28;20053;-70
2023/08/03 13:16:47;;;;;;;6.57;2.05;;;;;;;32.86;44.29;99122.78;6249031;28;20532;-70
2023/08/03 13:19:47;;;;;;;4.43;2.05;;;;;;;32.94;44.37;99116.06;6249158;28;20489;-70
2023/08/03 13:22:48;;;;;;;4.38;1.85;;;;;;;33.07;41.87;99122.88;6247772;28;20053;-70
2023/08/03 13:25:49;;;;;;;5.40;1.85;;;;;;;33.43;42.86;99129.25;6249146;28;20057;-71
2023/08/03 13:28:50;;;;;;;3.25;1.60;;;;;;;32.95;43.25;99125.81;6247783;28;20060;-70
2023/08/03 13:31:54;;;;;;;3.47;1.98;;;;;;;33.37;43.12;99130.31;6247442;28;20056;-71
2023/08/03 13:34:54;;;;;;;11.13;2.45;;;;;;;33.79;43.54;99128.50;6248754;28;20061;-71
2023/08/03 13:37:55;;;;;;;;;;;;;;;33.57;43.29;99126.03;6247848;28;20050;-71
2023/08/03 13:40:57;;;;;;;8.43;1.87;;;;;;;33.69;42.98;99127.44;6248857;28;20373;-71
2023/08/03 13:43:58;;;;;;;7.97;1.92;;;;;;;33.29;42.25;99128.13;6247236;28;20408;-71
2023/08/03 13:47:04;;;;;;;;;;;;;;;33.09;42.52;99135.09;6249055;28;20049;-71
2023/08/03 13:50:08;;;;;;;9.80;1.90;;;;;;;32.43;43.63;99142.75;6280343;28;20425;-70
2023/08/03 13:53:08;;;;;;;3.30;2.08;;;;;;;32.08;43.32;99134.13;6263718;28;20519;-71
2023/08/03 13:56:09;;;;;;;4.22;2.28;;;;;;;32.08;43.97;99152.19;6246869;28;20125;-71
2023/08/03 13:59:10;;;;;;;;;;;;;;;32.19;43.68;99142.31;6264123;28;20148;-70
2023/08/03 14:02:11;;;;;;;4.23;1.83;;;;;;;32.58;43.50;99145.59;6263653;28;19921;-71
2023/08/03 14:05:15;;;;;;;3.83;1.85;;;;;;;32.43;42.74;99146.28;6247899;28;20143;-71
2023/08/03 14:08:16;;;;;;;6.20;2.13;;;;;;;32.95;43.70;99147.41;6248035;28;20051;-71
2023/08/03 14:11:16;;;;;;;8.15;2.42;;;;;;;32.97;42.58;99139.03;6263098;28;20045;-71
2023/08/03 14:14:20;;;;;;;;;;;;;;;33.18;43.15;99137.28;6248356;28;20576;-71
2023/08/03 14:17:21;;;;;;;6.63;2.72;;;;;;;32.95;44.37;99144.72;6279675;28;19927;-71
2023/08/03 14:20:22;;;;;;;4.40;1.80;;;;;;;32.60;42.68;99148.03;6245625;28;20053;-71